This is the latest recevied weather packets stored in our database for station/object M0OAB-1. If no packets are shown the sender has not sent any weather packets the latest 10 day(s).
| Time | Temp. | Humidity | Pressure | Rain* | Wind** | Luminosity | Snow |
|---|---|---|---|---|---|---|---|
| 1777638484 | 24.44° C | 30% | 1006.4 hPa | 0 mm | - | - | - |
| 1777638124 | 24.44° C | 31% | 1006.3 hPa | 0 mm | - | - | - |
| 1777637285 | 24.44° C | 31% | 1006.5 hPa | 0 mm | - | - | - |
| 1777637164 | 24.44° C | 32% | 1006.7 hPa | 0 mm | - | - | - |
| 1777636564 | 24.44° C | 32% | 1006.7 hPa | 0 mm | - | - | - |
| 1777635245 | 23.89° C | 32% | 1006.7 hPa | 0 mm | - | - | - |
| 1777634165 | 23.33° C | 32% | 1006.9 hPa | 0 mm | - | - | - |
| 1777633804 | 23.33° C | 31% | 1006.8 hPa | 0 mm | - | - | - |
| 1777631644 | 22.22° C | 38% | 1007 hPa | 0 mm | - | - | - |
| 1777630684 | 21.67° C | 37% | 1007 hPa | 0 mm | - | - | - |
| 1777630564 | 21.67° C | 35% | 1007 hPa | 0 mm | - | - | - |
| 1777630085 | 21.67° C | 35% | 1007.2 hPa | 0 mm | - | - | - |
| 1777628644 | 21.11° C | 38% | 1007.2 hPa | 0 mm | - | - | - |
| 1777627205 | 19.44° C | 41% | 1007.4 hPa | 0 mm | - | - | - |
| 1777627084 | 19.44° C | 40% | 1007.2 hPa | 0 mm | - | - | - |
| 1777626605 | 19.44° C | 40% | 1007.4 hPa | 0 mm | - | - | - |
| 1777624924 | 19.44° C | 40% | 1007.2 hPa | 0 mm | - | - | - |
| 1777624444 | 19.44° C | 40% | 1007 hPa | 0 mm | - | - | - |
| 1777624324 | 19.44° C | 40% | 1007.1 hPa | 0 mm | - | - | - |
| 1777624085 | 19.44° C | 40% | 1007 hPa | 0 mm | - | - | - |
| 1777623245 | 19.44° C | 40% | 1007.2 hPa | 0 mm | - | - | - |
| 1777622045 | 19.44° C | 40% | 1007 hPa | 0 mm | - | - | - |
| 1777620484 | 20.56° C | 41% | 1006.7 hPa | 0 mm | - | - | - |
| 1777618924 | 17.78° C | 50% | 1006.7 hPa | 0 mm | - | - | - |
| 1777617124 | 12.22° C | 64% | 1006.6 hPa | 0 mm | - | - | - |
* Rain latest hour (hover to see other rain measurements)
** Current wind speed in m/s (hover to see current wind gust speed)